sensor_id;sensor_type;location;lat;lon;timestamp;pressure;altitude;pressure_sealevel;temperature;humidity
20394;BME280;10356;50.544;9.642;2023-07-30T00:00:27;97694.75;;;16.95;100.00
20394;BME280;10356;50.544;9.642;2023-07-30T00:02:53;97693.75;;;16.96;100.00
20394;BME280;10356;50.544;9.642;2023-07-30T00:05:20;97697.88;;;16.90;100.00
20394;BME280;10356;50.544;9.642;2023-07-30T00:07:46;97699.22;;;16.86;100.00
20394;BME280;10356;50.544;9.642;2023-07-30T00:10:13;97695.59;;;16.87;100.00
20394;BME280;10356;50.544;9.642;2023-07-30T00:12:41;97699.91;;;16.80;100.00
20394;BME280;10356;50.544;9.642;2023-07-30T00:15:08;97695.94;;;16.84;100.00
20394;BME280;10356;50.544;9.642;2023-07-30T00:17:35;97697.09;;;16.82;100.00
20394;BME280;10356;50.544;9.642;2023-07-30T00:20:01;97691.66;;;16.83;100.00
20394;BME280;10356;50.544;9.642;2023-07-30T00:22:28;97695.47;;;16.81;100.00
20394;BME280;10356;50.544;9.642;2023-07-30T00:24:54;97696.63;;;16.78;100.00
20394;BME280;10356;50.544;9.642;2023-07-30T00:27:21;97707.47;;;16.75;100.00
20394;BME280;10356;50.544;9.642;2023-07-30T00:29:49;97704.19;;;16.73;100.00
20394;BME280;10356;50.544;9.642;2023-07-30T00:32:15;97702.56;;;16.72;100.00
20394;BME280;10356;50.544;9.642;2023-07-30T00:34:42;97708.16;;;16.69;100.00
20394;BME280;10356;50.544;9.642;2023-07-30T00:37:08;97701.28;;;16.68;100.00
20394;BME280;10356;50.544;9.642;2023-07-30T00:39:35;97698.31;;;16.63;100.00
20394;BME280;10356;50.544;9.642;2023-07-30T00:42:02;97700.28;;;16.61;100.00
20394;BME280;10356;50.544;9.642;2023-07-30T00:44:28;97698.03;;;16.58;100.00
20394;BME280;10356;50.544;9.642;2023-07-30T00:46:56;97699.16;;;16.55;100.00
20394;BME280;10356;50.544;9.642;2023-07-30T00:49:23;97696.06;;;16.52;100.00
20394;BME280;10356;50.544;9.642;2023-07-30T00:51:49;97701.97;;;16.46;100.00
20394;BME280;10356;50.544;9.642;2023-07-30T00:54:16;97691.13;;;16.41;100.00
20394;BME280;10356;50.544;9.642;2023-07-30T00:56:51;97701.63;;;16.41;100.00
20394;BME280;10356;50.544;9.642;2023-07-30T00:59:18;97694.09;;;16.38;100.00
20394;BME280;10356;50.544;9.642;2023-07-30T01:01:45;97697.72;;;16.37;100.00
20394;BME280;10356;50.544;9.642;2023-07-30T01:04:15;97704.47;;;16.31;100.00
20394;BME280;10356;50.544;9.642;2023-07-30T01:06:41;97716.13;;;16.29;100.00
20394;BME280;10356;50.544;9.642;2023-07-30T01:09:08;97718.09;;;16.27;100.00
20394;BME280;10356;50.544;9.642;2023-07-30T01:11:36;97720.44;;;16.22;100.00
20394;BME280;10356;50.544;9.642;2023-07-30T01:14:03;97723.84;;;16.22;100.00
20394;BME280;10356;50.544;9.642;2023-07-30T01:16:31;97734.53;;;16.21;100.00
20394;BME280;10356;50.544;9.642;2023-07-30T01:18:58;97731.25;;;16.19;100.00
20394;BME280;10356;50.544;9.642;2023-07-30T01:21:31;97745.72;;;16.15;100.00
20394;BME280;10356;50.544;9.642;2023-07-30T01:23:57;97751.63;;;16.09;100.00
20394;BME280;10356;50.544;9.642;2023-07-30T01:26:27;97749.50;;;16.04;100.00
20394;BME280;10356;50.544;9.642;2023-07-30T01:28:58;97755.09;;;16.01;100.00
20394;BME280;10356;50.544;9.642;2023-07-30T01:31:27;97753.78;;;15.97;100.00
20394;BME280;10356;50.544;9.642;2023-07-30T01:33:56;97752.97;;;15.96;100.00
20394;BME280;10356;50.544;9.642;2023-07-30T01:36:24;97757.56;;;15.94;100.00
20394;BME280;10356;50.544;9.642;2023-07-30T01:38:52;97746.38;;;15.92;100.00
20394;BME280;10356;50.544;9.642;2023-07-30T01:41:19;97748.72;;;15.87;100.00
20394;BME280;10356;50.544;9.642;2023-07-30T01:43:46;97753.97;;;15.87;100.00
20394;BME280;10356;50.544;9.642;2023-07-30T01:46:12;97758.38;;;15.87;100.00
20394;BME280;10356;50.544;9.642;2023-07-30T01:48:38;97759.22;;;15.87;100.00
20394;BME280;10356;50.544;9.642;2023-07-30T01:51:05;97752.13;;;15.88;100.00
20394;BME280;10356;50.544;9.642;2023-07-30T01:53:31;97757.38;;;15.88;100.00
20394;BME280;10356;50.544;9.642;2023-07-30T01:55:59;97755.28;;;15.91;100.00
20394;BME280;10356;50.544;9.642;2023-07-30T01:58:26;97758.56;;;15.93;100.00
20394;BME280;10356;50.544;9.642;2023-07-30T02:00:52;97754.09;;;15.94;100.00
20394;BME280;10356;50.544;9.642;2023-07-30T02:03:19;97755.94;;;15.93;100.00
20394;BME280;10356;50.544;9.642;2023-07-30T02:05:45;97754.94;;;15.94;100.00
20394;BME280;10356;50.544;9.642;2023-07-30T02:08:12;97759.88;;;15.98;100.00
20394;BME280;10356;50.544;9.642;2023-07-30T02:10:41;97759.69;;;15.99;100.00
20394;BME280;10356;50.544;9.642;2023-07-30T02:13:09;97775.28;;;16.01;100.00
20394;BME280;10356;50.544;9.642;2023-07-30T02:15:40;97769.06;;;16.02;100.00
20394;BME280;10356;50.544;9.642;2023-07-30T02:18:06;97764.47;;;16.04;100.00
20394;BME280;10356;50.544;9.642;2023-07-30T02:20:35;97759.53;;;16.09;100.00
20394;BME280;10356;50.544;9.642;2023-07-30T02:23:01;97764.47;;;16.12;100.00
20394;BME280;10356;50.544;9.642;2023-07-30T02:25:28;97756.25;;;16.15;100.00
20394;BME280;10356;50.544;9.642;2023-07-30T02:27:54;97759.53;;;16.17;100.00
20394;BME280;10356;50.544;9.642;2023-07-30T02:30:22;97760.84;;;16.21;100.00
20394;BME280;10356;50.544;9.642;2023-07-30T02:32:49;97761.31;;;16.24;100.00
20394;BME280;10356;50.544;9.642;2023-07-30T02:35:15;97765.44;;;16.27;100.00
20394;BME280;10356;50.544;9.642;2023-07-30T02:37:41;97766.25;;;16.27;100.00
20394;BME280;10356;50.544;9.642;2023-07-30T02:40:09;97766.25;;;16.27;100.00
20394;BME280;10356;50.544;9.642;2023-07-30T02:42:36;97765.44;;;16.27;100.00
20394;BME280;10356;50.544;9.642;2023-07-30T02:45:03;97770.84;;;16.25;100.00
20394;BME280;10356;50.544;9.642;2023-07-30T02:47:31;97778.41;;;16.04;100.00
20394;BME280;10356;50.544;9.642;2023-07-30T02:49:58;97781.56;;;16.08;100.00
20394;BME280;10356;50.544;9.642;2023-07-30T02:52:24;97792.06;;;16.08;100.00
20394;BME280;10356;50.544;9.642;2023-07-30T02:54:51;97793.38;;;16.04;100.00
20394;BME280;10356;50.544;9.642;2023-07-30T02:57:17;97791.06;;;16.01;100.00
20394;BME280;10356;50.544;9.642;2023-07-30T02:59:44;97801.09;;;15.97;100.00
20394;BME280;10356;50.544;9.642;2023-07-30T03:02:10;97802.56;;;15.91;100.00
20394;BME280;10356;50.544;9.642;2023-07-30T03:04:38;97803.88;;;15.87;100.00
20394;BME280;10356;50.544;9.642;2023-07-30T03:07:05;97796.78;;;15.88;100.00
20394;BME280;10356;50.544;9.642;2023-07-30T03:09:31;97802.69;;;15.82;100.00
20394;BME280;10356;50.544;9.642;2023-07-30T03:11:59;97799.94;;;15.75;100.00
20394;BME280;10356;50.544;9.642;2023-07-30T03:14:25;97802.84;;;15.72;100.00
20394;BME280;10356;50.544;9.642;2023-07-30T03:16:52;97813.38;;;15.72;100.00
20394;BME280;10356;50.544;9.642;2023-07-30T03:19:18;97824.22;;;15.69;100.00
20394;BME280;10356;50.544;9.642;2023-07-30T03:21:46;97815.31;;;15.62;100.00
20394;BME280;10356;50.544;9.642;2023-07-30T03:24:12;97817.13;;;15.62;100.00
20394;BME280;10356;50.544;9.642;2023-07-30T03:26:39;97824.19;;;15.61;100.00
20394;BME280;10356;50.544;9.642;2023-07-30T03:29:05;97824.84;;;15.63;100.00
20394;BME280;10356;50.544;9.642;2023-07-30T03:31:32;97831.91;;;15.63;100.00
20394;BME280;10356;50.544;9.642;2023-07-30T03:33:59;97831.25;;;15.69;100.00
20394;BME280;10356;50.544;9.642;2023-07-30T03:36:26;97827.50;;;15.71;100.00
20394;BME280;10356;50.544;9.642;2023-07-30T03:38:53;97828.00;;;15.75;100.00
20394;BME280;10356;50.544;9.642;2023-07-30T03:41:20;97830.94;;;15.80;100.00
20394;BME280;10356;50.544;9.642;2023-07-30T03:43:47;97831.28;;;15.85;100.00
20394;BME280;10356;50.544;9.642;2023-07-30T03:46:14;97834.75;;;15.93;100.00
20394;BME280;10356;50.544;9.642;2023-07-30T03:48:40;97834.25;;;15.98;100.00
20394;BME280;10356;50.544;9.642;2023-07-30T03:51:07;97835.56;;;16.02;100.00
20394;BME280;10356;50.544;9.642;2023-07-30T03:53:33;97829.34;;;16.03;100.00
20394;BME280;10356;50.544;9.642;2023-07-30T03:56:02;97836.88;;;16.06;100.00
20394;BME280;10356;50.544;9.642;2023-07-30T03:58:28;97824.25;;;16.10;100.00
20394;BME280;10356;50.544;9.642;2023-07-30T04:00:55;97826.56;;;16.13;100.00
20394;BME280;10356;50.544;9.642;2023-07-30T04:03:22;97836.75;;;16.16;100.00
20394;BME280;10356;50.544;9.642;2023-07-30T04:05:48;97837.06;;;16.21;100.00
20394;BME280;10356;50.544;9.642;2023-07-30T04:08:15;97830.19;;;16.28;100.00
20394;BME280;10356;50.544;9.642;2023-07-30T04:10:42;97841.34;;;16.30;100.00
20394;BME280;10356;50.544;9.642;2023-07-30T04:13:10;97835.59;;;16.34;100.00
20394;BME280;10356;50.544;9.642;2023-07-30T04:15:36;97841.00;;;16.41;100.00
20394;BME280;10356;50.544;9.642;2023-07-30T04:18:03;97840.03;;;16.74;100.00
20394;BME280;10356;50.544;9.642;2023-07-30T04:20:29;97846.94;;;17.30;100.00
20394;BME280;10356;50.544;9.642;2023-07-30T04:22:56;97845.91;;;17.78;100.00
20394;BME280;10356;50.544;9.642;2023-07-30T04:25:23;97842.19;;;17.95;100.00
20394;BME280;10356;50.544;9.642;2023-07-30T04:27:49;97848.22;;;17.81;100.00
20394;BME280;10356;50.544;9.642;2023-07-30T04:30:17;97847.81;;;17.69;100.00
20394;BME280;10356;50.544;9.642;2023-07-30T04:32:44;97848.16;;;17.58;100.00
20394;BME280;10356;50.544;9.642;2023-07-30T04:35:10;97846.22;;;17.52;100.00
20394;BME280;10356;50.544;9.642;2023-07-30T04:37:37;97847.06;;;17.44;100.00
20394;BME280;10356;50.544;9.642;2023-07-30T04:40:04;97844.94;;;17.40;100.00
20394;BME280;10356;50.544;9.642;2023-07-30T04:42:31;97847.91;;;17.37;100.00
20394;BME280;10356;50.544;9.642;2023-07-30T04:44:57;97854.53;;;17.33;100.00
20394;BME280;10356;50.544;9.642;2023-07-30T04:47:25;97854.03;;;17.29;100.00
20394;BME280;10356;50.544;9.642;2023-07-30T04:49:51;97848.09;;;17.27;100.00
20394;BME280;10356;50.544;9.642;2023-07-30T04:52:18;97850.75;;;17.27;100.00
20394;BME280;10356;50.544;9.642;2023-07-30T04:54:44;97847.94;;;17.29;100.00
20394;BME280;10356;50.544;9.642;2023-07-30T04:57:11;97858.97;;;17.32;100.00
20394;BME280;10356;50.544;9.642;2023-07-30T04:59:37;97854.16;;;17.36;100.00
20394;BME280;10356;50.544;9.642;2023-07-30T05:02:04;97848.41;;;17.40;100.00
20394;BME280;10356;50.544;9.642;2023-07-30T05:04:32;97857.94;;;17.33;100.00
20394;BME280;10356;50.544;9.642;2023-07-30T05:06:59;97860.66;;;17.17;100.00
20394;BME280;10356;50.544;9.642;2023-07-30T05:09:25;97864.59;;;17.21;100.00
20394;BME280;10356;50.544;9.642;2023-07-30T05:11:52;97852.59;;;17.19;100.00
20394;BME280;10356;50.544;9.642;2023-07-30T05:14:18;97864.75;;;17.20;100.00
20394;BME280;10356;50.544;9.642;2023-07-30T05:16:45;97866.25;;;17.22;100.00
20394;BME280;10356;50.544;9.642;2023-07-30T05:19:11;97852.72;;;17.25;100.00
20394;BME280;10356;50.544;9.642;2023-07-30T05:21:39;97857.66;;;17.28;100.00
20394;BME280;10356;50.544;9.642;2023-07-30T05:24:07;97854.53;;;17.33;100.00
20394;BME280;10356;50.544;9.642;2023-07-30T05:26:33;97853.34;;;17.35;100.00
20394;BME280;10356;50.544;9.642;2023-07-30T05:29:00;97857.13;;;17.41;100.00
20394;BME280;10356;50.544;9.642;2023-07-30T05:31:26;97857.91;;;17.41;100.00
20394;BME280;10356;50.544;9.642;2023-07-30T05:33:53;97857.41;;;17.46;100.00
20394;BME280;10356;50.544;9.642;2023-07-30T05:36:20;97854.97;;;17.52;100.00
20394;BME280;10356;50.544;9.642;2023-07-30T05:38:48;97859.19;;;17.61;100.00
20394;BME280;10356;50.544;9.642;2023-07-30T05:41:14;97864.13;;;17.65;100.00
20394;BME280;10356;50.544;9.642;2023-07-30T05:43:40;97864.72;;;17.75;100.00
20394;BME280;10356;50.544;9.642;2023-07-30T05:46:07;97864.38;;;17.78;100.00
20394;BME280;10356;50.544;9.642;2023-07-30T05:48:34;97856.50;;;17.70;100.00
20394;BME280;10356;50.544;9.642;2023-07-30T05:51:00;97864.31;;;17.86;100.00
20394;BME280;10356;50.544;9.642;2023-07-30T05:53:27;97858.03;;;17.95;100.00
20394;BME280;10356;50.544;9.642;2023-07-30T05:55:55;97866.53;;;18.05;100.00
20394;BME280;10356;50.544;9.642;2023-07-30T05:58:21;97867.00;;;18.08;100.00
20394;BME280;10356;50.544;9.642;2023-07-30T06:00:48;97865.31;;;18.15;100.00
20394;BME280;10356;50.544;9.642;2023-07-30T06:03:14;97872.50;;;18.21;100.00
20394;BME280;10356;50.544;9.642;2023-07-30T06:05:41;97868.28;;;18.35;100.00
20394;BME280;10356;50.544;9.642;2023-07-30T06:08:08;97876.00;;;18.36;100.00
20394;BME280;10356;50.544;9.642;2023-07-30T06:10:35;97871.34;;;18.47;100.00
20394;BME280;10356;50.544;9.642;2023-07-30T06:13:04;97868.41;;;18.64;100.00
20394;BME280;10356;50.544;9.642;2023-07-30T06:15:30;97859.97;;;18.83;100.00
20394;BME280;10356;50.544;9.642;2023-07-30T06:17:57;97865.53;;;19.03;100.00
20394;BME280;10356;50.544;9.642;2023-07-30T06:20:24;97876.44;;;19.37;100.00
20394;BME280;10356;50.544;9.642;2023-07-30T06:22:51;97871.94;;;19.67;98.70
20394;BME280;10356;50.544;9.642;2023-07-30T06:25:17;97875.00;;;19.85;97.58
20394;BME280;10356;50.544;9.642;2023-07-30T06:27:43;97871.22;;;19.94;95.27
20394;BME280;10356;50.544;9.642;2023-07-30T06:30:12;97858.81;;;20.30;93.44
20394;BME280;10356;50.544;9.642;2023-07-30T06:32:38;97859.88;;;20.57;92.84
20394;BME280;10356;50.544;9.642;2023-07-30T06:35:06;97859.28;;;20.82;90.14
20394;BME280;10356;50.544;9.642;2023-07-30T06:37:33;97860.91;;;21.05;88.98
20394;BME280;10356;50.544;9.642;2023-07-30T06:39:59;97850.94;;;21.13;87.94
20394;BME280;10356;50.544;9.642;2023-07-30T06:42:29;97864.50;;;21.25;85.47
20394;BME280;10356;50.544;9.642;2023-07-30T06:44:55;97850.78;;;21.21;86.07
20394;BME280;10356;50.544;9.642;2023-07-30T06:47:23;97854.06;;;21.17;86.71
20394;BME280;10356;50.544;9.642;2023-07-30T06:49:49;97858.88;;;21.47;85.27
20394;BME280;10356;50.544;9.642;2023-07-30T06:52:16;97860.94;;;21.52;83.73
20394;BME280;10356;50.544;9.642;2023-07-30T06:54:42;97866.16;;;21.80;83.34
20394;BME280;10356;50.544;9.642;2023-07-30T06:57:09;97866.66;;;21.90;78.00
20394;BME280;10356;50.544;9.642;2023-07-30T06:59:35;97866.72;;;22.09;80.64
20394;BME280;10356;50.544;9.642;2023-07-30T07:02:02;97865.31;;;22.33;78.59
20394;BME280;10356;50.544;9.642;2023-07-30T07:04:31;97875.78;;;22.61;79.70
20394;BME280;10356;50.544;9.642;2023-07-30T07:06:58;97875.34;;;22.37;73.92
20394;BME280;10356;50.544;9.642;2023-07-30T07:09:25;97863.69;;;22.38;76.84
20394;BME280;10356;50.544;9.642;2023-07-30T07:11:51;97872.16;;;22.68;73.03
20394;BME280;10356;50.544;9.642;2023-07-30T07:14:18;97878.66;;;22.66;71.17
20394;BME280;10356;50.544;9.642;2023-07-30T07:16:44;97874.38;;;22.78;76.46
20394;BME280;10356;50.544;9.642;2023-07-30T07:19:11;97871.91;;;22.83;76.75
20394;BME280;10356;50.544;9.642;2023-07-30T07:21:38;97867.38;;;23.22;70.12
20394;BME280;10356;50.544;9.642;2023-07-30T07:24:05;97874.72;;;23.40;69.27
20394;BME280;10356;50.544;9.642;2023-07-30T07:26:31;97873.06;;;23.52;70.14
20394;BME280;10356;50.544;9.642;2023-07-30T07:28:58;97873.41;;;23.75;67.03
20394;BME280;10356;50.544;9.642;2023-07-30T07:31:25;97874.28;;;23.56;67.80
20394;BME280;10356;50.544;9.642;2023-07-30T07:33:52;97875.03;;;23.76;62.78
20394;BME280;10356;50.544;9.642;2023-07-30T07:36:19;97872.50;;;23.37;65.04
20394;BME280;10356;50.544;9.642;2023-07-30T07:38:47;97878.75;;;23.62;70.08
20394;BME280;10356;50.544;9.642;2023-07-30T07:41:14;97873.34;;;23.82;64.62
20394;BME280;10356;50.544;9.642;2023-07-30T07:43:41;97879.09;;;23.85;66.58
20394;BME280;10356;50.544;9.642;2023-07-30T07:46:08;97873.16;;;24.28;63.77
20394;BME280;10356;50.544;9.642;2023-07-30T07:48:38;97870.25;;;24.36;70.50
20394;BME280;10356;50.544;9.642;2023-07-30T07:51:05;97885.66;;;24.27;68.33
20394;BME280;10356;50.544;9.642;2023-07-30T07:53:31;97883.63;;;24.54;62.95
20394;BME280;10356;50.544;9.642;2023-07-30T07:55:59;97886.34;;;24.47;60.48
20394;BME280;10356;50.544;9.642;2023-07-30T07:58:26;97891.91;;;24.46;58.87
20394;BME280;10356;50.544;9.642;2023-07-30T08:00:54;97889.56;;;24.25;58.56
20394;BME280;10356;50.544;9.642;2023-07-30T08:03:21;97895.41;;;24.40;60.63
20394;BME280;10356;50.544;9.642;2023-07-30T08:05:47;97900.16;;;24.38;60.72
20394;BME280;10356;50.544;9.642;2023-07-30T08:08:14;97898.03;;;24.77;60.76
20394;BME280;10356;50.544;9.642;2023-07-30T08:10:41;97895.31;;;24.84;57.68
20394;BME280;10356;50.544;9.642;2023-07-30T08:13:11;97897.53;;;24.25;56.99
20394;BME280;10356;50.544;9.642;2023-07-30T08:15:38;97897.78;;;24.16;59.38
20394;BME280;10356;50.544;9.642;2023-07-30T08:18:05;97902.22;;;23.78;59.74
20394;BME280;10356;50.544;9.642;2023-07-30T08:20:31;97892.56;;;23.33;61.20
20394;BME280;10356;50.544;9.642;2023-07-30T08:22:58;97901.34;;;23.27;62.15
20394;BME280;10356;50.544;9.642;2023-07-30T08:25:24;97902.97;;;23.15;62.00
20394;BME280;10356;50.544;9.642;2023-07-30T08:27:51;97896.84;;;23.14;61.70
20394;BME280;10356;50.544;9.642;2023-07-30T08:30:19;97894.81;;;23.10;62.47
20394;BME280;10356;50.544;9.642;2023-07-30T08:32:45;97891.91;;;23.31;66.97
20394;BME280;10356;50.544;9.642;2023-07-30T08:35:11;97887.41;;;23.45;64.87
20394;BME280;10356;50.544;9.642;2023-07-30T08:37:38;97881.69;;;23.41;62.21
20394;BME280;10356;50.544;9.642;2023-07-30T08:40:06;97882.88;;;23.52;62.74
20394;BME280;10356;50.544;9.642;2023-07-30T08:42:33;97881.41;;;23.69;61.58
20394;BME280;10356;50.544;9.642;2023-07-30T08:44:59;97880.44;;;23.50;61.86
20394;BME280;10356;50.544;9.642;2023-07-30T08:47:27;97883.75;;;23.32;61.86
20394;BME280;10356;50.544;9.642;2023-07-30T08:49:54;97879.03;;;23.15;63.27
20394;BME280;10356;50.544;9.642;2023-07-30T08:52:20;97884.19;;;22.90;62.95
20394;BME280;10356;50.544;9.642;2023-07-30T08:54:49;97884.59;;;22.61;67.63
20394;BME280;10356;50.544;9.642;2023-07-30T08:57:17;97876.22;;;22.58;66.02
20394;BME280;10356;50.544;9.642;2023-07-30T08:59:49;97878.44;;;22.61;65.85
20394;BME280;10356;50.544;9.642;2023-07-30T09:02:19;97880.09;;;22.68;65.27
20394;BME280;10356;50.544;9.642;2023-07-30T09:04:52;97886.59;;;22.39;65.95
20394;BME280;10356;50.544;9.642;2023-07-30T09:07:19;97885.31;;;22.22;67.93
20394;BME280;10356;50.544;9.642;2023-07-30T09:09:46;97881.63;;;22.17;69.74
20394;BME280;10356;50.544;9.642;2023-07-30T09:12:13;97887.13;;;22.09;69.66
20394;BME280;10356;50.544;9.642;2023-07-30T09:14:39;97885.81;;;21.85;71.90
20394;BME280;10356;50.544;9.642;2023-07-30T09:17:10;97884.63;;;21.94;74.20
20394;BME280;10356;50.544;9.642;2023-07-30T09:19:36;97868.19;;;21.77;75.19
20394;BME280;10356;50.544;9.642;2023-07-30T09:22:05;97875.13;;;21.72;74.99
20394;BME280;10356;50.544;9.642;2023-07-30T09:24:32;97887.59;;;21.78;75.38
20394;BME280;10356;50.544;9.642;2023-07-30T09:27:01;97886.03;;;21.90;75.53
20394;BME280;10356;50.544;9.642;2023-07-30T09:29:28;97885.22;;;21.83;75.62
20394;BME280;10356;50.544;9.642;2023-07-30T09:31:55;97881.94;;;21.88;75.41
20394;BME280;10356;50.544;9.642;2023-07-30T09:34:23;97886.66;;;21.92;74.62
20394;BME280;10356;50.544;9.642;2023-07-30T09:36:52;97875.50;;;22.10;74.04
20394;BME280;10356;50.544;9.642;2023-07-30T09:39:21;97876.56;;;22.22;73.23
20394;BME280;10356;50.544;9.642;2023-07-30T09:41:49;97868.56;;;22.28;73.25
20394;BME280;10356;50.544;9.642;2023-07-30T09:44:16;97867.44;;;22.64;71.91
20394;BME280;10356;50.544;9.642;2023-07-30T09:46:44;97870.28;;;22.88;70.10
20394;BME280;10356;50.544;9.642;2023-07-30T09:49:11;97868.03;;;22.92;70.23
20394;BME280;10356;50.544;9.642;2023-07-30T09:51:38;97866.16;;;23.25;69.28
20394;BME280;10356;50.544;9.642;2023-07-30T09:54:06;97872.06;;;23.47;68.34
20394;BME280;10356;50.544;9.642;2023-07-30T09:56:35;97866.91;;;23.58;68.22
20394;BME280;10356;50.544;9.642;2023-07-30T09:59:02;97880.88;;;23.47;69.21
20394;BME280;10356;50.544;9.642;2023-07-30T10:01:30;97876.81;;;23.25;65.80
20394;BME280;10356;50.544;9.642;2023-07-30T10:03:57;97877.16;;;23.48;65.36
20394;BME280;10356;50.544;9.642;2023-07-30T10:06:25;97874.06;;;23.58;66.13
20394;BME280;10356;50.544;9.642;2023-07-30T10:08:55;97869.97;;;24.12;64.52
20394;BME280;10356;50.544;9.642;2023-07-30T10:11:23;97862.09;;;24.24;61.80
20394;BME280;10356;50.544;9.642;2023-07-30T10:13:52;97862.75;;;24.20;61.23
20394;BME280;10356;50.544;9.642;2023-07-30T10:16:25;97860.69;;;24.53;59.66
20394;BME280;10356;50.544;9.642;2023-07-30T10:18:55;97860.50;;;24.16;60.08
20394;BME280;10356;50.544;9.642;2023-07-30T10:21:23;97862.69;;;23.88;60.32
20394;BME280;10356;50.544;9.642;2023-07-30T10:23:58;97871.84;;;23.48;61.27
20394;BME280;10356;50.544;9.642;2023-07-30T10:26:26;97857.34;;;23.31;65.43
20394;BME280;10356;50.544;9.642;2023-07-30T10:29:10;97848.97;;;23.34;64.48
20394;BME280;10356;50.544;9.642;2023-07-30T10:31:40;97844.88;;;23.31;65.00
20394;BME280;10356;50.544;9.642;2023-07-30T10:34:07;97842.72;;;23.66;64.50
20394;BME280;10356;50.544;9.642;2023-07-30T10:39:11;97837.78;;;24.14;63.91
20394;BME280;10356;50.544;9.642;2023-07-30T10:41:38;97837.38;;;24.17;61.33
20394;BME280;10356;50.544;9.642;2023-07-30T10:44:05;97836.19;;;24.00;62.84
20394;BME280;10356;50.544;9.642;2023-07-30T10:46:32;97831.94;;;24.30;62.52
20394;BME280;10356;50.544;9.642;2023-07-30T10:48:59;97834.56;;;24.37;61.36
20394;BME280;10356;50.544;9.642;2023-07-30T10:51:25;97842.94;;;24.09;62.76
20394;BME280;10356;50.544;9.642;2023-07-30T10:53:52;97835.78;;;23.65;63.67
20394;BME280;10356;50.544;9.642;2023-07-30T10:56:21;97830.13;;;23.42;65.45
20394;BME280;10356;50.544;9.642;2023-07-30T10:58:49;97835.88;;;23.13;66.13
20394;BME280;10356;50.544;9.642;2023-07-30T11:01:18;97831.44;;;22.87;66.15
20394;BME280;10356;50.544;9.642;2023-07-30T11:03:48;97843.50;;;22.77;66.76
20394;BME280;10356;50.544;9.642;2023-07-30T11:06:21;97840.44;;;22.73;68.07
20394;BME280;10356;50.544;9.642;2023-07-30T11:08:48;97835.13;;;22.53;68.17
20394;BME280;10356;50.544;9.642;2023-07-30T11:11:15;97841.41;;;22.26;68.50
20394;BME280;10356;50.544;9.642;2023-07-30T11:13:43;97840.84;;;22.37;69.66
20394;BME280;10356;50.544;9.642;2023-07-30T11:16:13;97852.03;;;22.20;74.37
20394;BME280;10356;50.544;9.642;2023-07-30T11:18:41;97847.91;;;21.98;77.66
20394;BME280;10356;50.544;9.642;2023-07-30T11:21:09;97852.75;;;21.81;79.42
20394;BME280;10356;50.544;9.642;2023-07-30T11:23:38;97865.47;;;21.58;81.80
20394;BME280;10356;50.544;9.642;2023-07-30T11:26:06;97878.78;;;21.30;84.23
20394;BME280;10356;50.544;9.642;2023-07-30T11:28:34;97938.13;;;20.59;89.96
20394;BME280;10356;50.544;9.642;2023-07-30T11:31:02;97951.28;;;19.29;91.29
20394;BME280;10356;50.544;9.642;2023-07-30T11:33:29;97959.19;;;18.55;93.21
20394;BME280;10356;50.544;9.642;2023-07-30T11:36:00;97972.38;;;18.24;97.07
20394;BME280;10356;50.544;9.642;2023-07-30T11:38:27;97971.03;;;17.98;100.00
20394;BME280;10356;50.544;9.642;2023-07-30T11:40:54;97985.72;;;17.92;99.21
20394;BME280;10356;50.544;9.642;2023-07-30T11:43:22;97992.81;;;17.92;100.00
20394;BME280;10356;50.544;9.642;2023-07-30T11:46:06;97995.44;;;17.92;100.00
20394;BME280;10356;50.544;9.642;2023-07-30T11:48:32;98005.38;;;17.74;96.47
20394;BME280;10356;50.544;9.642;2023-07-30T11:51:01;98006.56;;;17.71;96.60
20394;BME280;10356;50.544;9.642;2023-07-30T11:53:49;98024.00;;;17.72;94.98
20394;BME280;10356;50.544;9.642;2023-07-30T11:56:20;98014.13;;;17.66;95.38
20394;BME280;10356;50.544;9.642;2023-07-30T11:58:49;98012.47;;;17.81;93.99
20394;BME280;10356;50.544;9.642;2023-07-30T12:01:16;98019.22;;;17.76;95.18
20394;BME280;10356;50.544;9.642;2023-07-30T12:03:42;98031.03;;;17.88;93.12
20394;BME280;10356;50.544;9.642;2023-07-30T12:06:11;98030.91;;;17.89;93.30
20394;BME280;10356;50.544;9.642;2023-07-30T12:08:38;98045.25;;;17.79;90.81
20394;BME280;10356;50.544;9.642;2023-07-30T12:11:06;98037.47;;;17.93;92.17
20394;BME280;10356;50.544;9.642;2023-07-30T12:13:33;98038.56;;;18.07;93.52
20394;BME280;10356;50.544;9.642;2023-07-30T12:16:00;98045.03;;;18.35;93.45
20394;BME280;10356;50.544;9.642;2023-07-30T12:18:26;98055.16;;;18.62;92.29
20394;BME280;10356;50.544;9.642;2023-07-30T12:20:54;98053.78;;;18.74;86.49
20394;BME280;10356;50.544;9.642;2023-07-30T12:23:22;98063.69;;;19.17;86.26
20394;BME280;10356;50.544;9.642;2023-07-30T12:25:50;98058.56;;;19.76;89.10
20394;BME280;10356;50.544;9.642;2023-07-30T12:28:16;98060.09;;;20.14;84.26
20394;BME280;10356;50.544;9.642;2023-07-30T12:30:43;98069.25;;;20.26;78.35
20394;BME280;10356;50.544;9.642;2023-07-30T12:33:09;98063.75;;;20.42;78.86
20394;BME280;10356;50.544;9.642;2023-07-30T12:35:36;98062.94;;;20.13;79.51
20394;BME280;10356;50.544;9.642;2023-07-30T12:38:02;98061.84;;;20.07;80.95
20394;BME280;10356;50.544;9.642;2023-07-30T12:40:30;98045.78;;;20.08;79.52
20394;BME280;10356;50.544;9.642;2023-07-30T12:43:00;98043.44;;;19.99;79.11
20394;BME280;10356;50.544;9.642;2023-07-30T12:45:26;98048.97;;;20.04;77.51
20394;BME280;10356;50.544;9.642;2023-07-30T12:47:53;98047.72;;;20.00;80.11
20394;BME280;10356;50.544;9.642;2023-07-30T12:50:19;98048.91;;;19.97;76.46
20394;BME280;10356;50.544;9.642;2023-07-30T12:52:46;98038.59;;;19.88;76.01
20394;BME280;10356;50.544;9.642;2023-07-30T12:55:12;98042.41;;;20.00;77.03
20394;BME280;10356;50.544;9.642;2023-07-30T12:57:40;98041.53;;;20.07;76.75